DAL2766 KPDX-KLAX
Flight info
| Callsign | DAL2766 |
|---|---|
| Flight time | 2h 0m |
| Altitude | 37000 |
| Route | MINNE5 FAMUK EUG J126 OED RBL SAC BURGL IRNMN2 |
| Aircraft | A319/M-SDE3FGHIRWY/LB1 |
Departure
| Time | 2026-04-24 22:43 |
|---|---|
| Airport | Portland International Airport (KPDX) |
Arrival
| Time | 2026-04-25 00:43 |
|---|---|
| Airport | Los Angeles International Airport (KLAX) |
| Time | Latitude | Longitude | Altitude | Speed | Heading |
|---|---|---|---|---|---|
| 2026-04-24 22:14 | 45.59112 | -122.59410 | 28 ft | 0 kts | 207° |
| 2026-04-24 22:33 | 45.59117 | -122.59406 | 28 ft | 2 kts | 209° |
| 2026-04-24 22:33 | 45.59130 | -122.59396 | 28 ft | 2 kts | 208° |
| 2026-04-24 22:33 | 45.59143 | -122.59386 | 28 ft | 2 kts | 209° |
| 2026-04-24 22:33 | 45.59154 | -122.59377 | 28 ft | 0 kts | 207° |
| 2026-04-24 22:34 | 45.59165 | -122.59370 | 28 ft | 2 kts | 189° |
| 2026-04-24 22:34 | 45.59180 | -122.59370 | 28 ft | 2 kts | 167° |
| 2026-04-24 22:34 | 45.59194 | -122.59377 | 29 ft | 2 kts | 143° |
| 2026-04-24 22:34 | 45.59204 | -122.59392 | 29 ft | 0 kts | 122° |
| 2026-04-24 22:35 | 45.59207 | -122.59399 | 29 ft | 1 kts | 117° |
| 2026-04-24 22:35 | 45.59207 | -122.59401 | 29 ft | 0 kts | 118° |
| 2026-04-24 22:37 | 45.59207 | -122.59400 | 29 ft | 0 kts | 118° |
| 2026-04-24 22:37 | 45.59198 | -122.59377 | 29 ft | 4 kts | 118° |
| 2026-04-24 22:37 | 45.59174 | -122.59314 | 28 ft | 9 kts | 118° |
| 2026-04-24 22:37 | 45.59139 | -122.59220 | 28 ft | 12 kts | 117° |
| 2026-04-24 22:38 | 45.59093 | -122.59108 | 28 ft | 14 kts | 120° |
| 2026-04-24 22:38 | 45.59041 | -122.58975 | 28 ft | 16 kts | 117° |
| 2026-04-24 22:38 | 45.59029 | -122.58813 | 28 ft | 17 kts | 88° |
| 2026-04-24 22:38 | 45.58998 | -122.58649 | 28 ft | 17 kts | 120° |
| 2026-04-24 22:39 | 45.58935 | -122.58490 | 28 ft | 19 kts | 118° |
| 2026-04-24 22:39 | 45.58869 | -122.58318 | 28 ft | 20 kts | 119° |
| 2026-04-24 22:39 | 45.58797 | -122.58133 | 28 ft | 22 kts | 118° |
| 2026-04-24 22:39 | 45.58718 | -122.57931 | 28 ft | 23 kts | 118° |
| 2026-04-24 22:40 | 45.58638 | -122.57723 | 28 ft | 23 kts | 119° |
| 2026-04-24 22:40 | 45.58558 | -122.57518 | 28 ft | 24 kts | 118° |
| 2026-04-24 22:40 | 45.58476 | -122.57306 | 28 ft | 24 kts | 119° |
| 2026-04-24 22:40 | 45.58397 | -122.57106 | 28 ft | 19 kts | 119° |
| 2026-04-24 22:41 | 45.58353 | -122.56992 | 28 ft | 11 kts | 118° |
| 2026-04-24 22:41 | 45.58346 | -122.56915 | 28 ft | 0 kts | 67° |
| 2026-04-24 22:41 | 45.58350 | -122.56905 | 28 ft | 3 kts | 56° |
| 2026-04-24 22:42 | 45.58398 | -122.56870 | 28 ft | 12 kts | 6° |
| 2026-04-24 22:42 | 45.58441 | -122.56900 | 28 ft | 0 kts | 300° |
| 2026-04-24 22:42 | 45.58498 | -122.57046 | 28 ft | 51 kts | 298° |
| 2026-04-24 22:42 | 45.58789 | -122.57791 | 29 ft | 120 kts | 298° |
| 2026-04-24 22:43 | 45.59288 | -122.59061 | 182 ft | 162 kts | 300° |
| 2026-04-24 22:43 | 45.59823 | -122.60474 | 832 ft | 164 kts | 300° |
| 2026-04-24 22:43 | 45.60319 | -122.61911 | 1537 ft | 166 kts | 299° |
| 2026-04-24 22:43 | 45.60804 | -122.63438 | 2141 ft | 174 kts | 298° |
| 2026-04-24 22:44 | 45.61313 | -122.65083 | 2599 ft | 191 kts | 298° |
| 2026-04-24 22:44 | 45.61839 | -122.66915 | 3069 ft | 208 kts | 297° |
| 2026-04-24 22:44 | 45.62482 | -122.68835 | 3542 ft | 224 kts | 301° |
| 2026-04-24 22:44 | 45.63253 | -122.70866 | 3959 ft | 245 kts | 302° |
| 2026-04-24 22:45 | 45.64117 | -122.73041 | 4549 ft | 260 kts | 303° |
| 2026-04-24 22:45 | 45.65032 | -122.75317 | 5164 ft | 274 kts | 303° |
| 2026-04-24 22:45 | 45.65982 | -122.77673 | 6057 ft | 277 kts | 303° |
| 2026-04-24 22:45 | 45.66870 | -122.80102 | 6972 ft | 282 kts | 292° |
| 2026-04-24 22:46 | 45.67076 | -122.82879 | 7909 ft | 291 kts | 265° |
| 2026-04-24 22:46 | 45.66563 | -122.85696 | 8824 ft | 296 kts | 256° |
| 2026-04-24 22:46 | 45.65899 | -122.88454 | 9597 ft | 304 kts | 249° |
| 2026-04-24 22:46 | 45.64619 | -122.90894 | 10413 ft | 315 kts | 221° |
| 2026-04-24 22:47 | 45.62635 | -122.92333 | 10997 ft | 331 kts | 192° |
| 2026-04-24 22:47 | 45.60327 | -122.92699 | 11500 ft | 344 kts | 183° |
| 2026-04-24 22:47 | 45.57878 | -122.92896 | 12103 ft | 354 kts | 182° |
| 2026-04-24 22:47 | 45.55423 | -122.93097 | 12810 ft | 360 kts | 184° |
| 2026-04-24 22:48 | 45.52898 | -122.93336 | 13516 ft | 365 kts | 184° |
| 2026-04-24 22:48 | 45.50373 | -122.93602 | 14217 ft | 370 kts | 185° |
| 2026-04-24 22:48 | 45.47807 | -122.93888 | 14927 ft | 374 kts | 185° |
| 2026-04-24 22:48 | 45.45192 | -122.94190 | 15649 ft | 377 kts | 186° |
| 2026-04-24 22:49 | 45.42578 | -122.94492 | 16334 ft | 381 kts | 186° |
| 2026-04-24 22:49 | 45.39943 | -122.94801 | 17001 ft | 384 kts | 186° |
| 2026-04-24 22:49 | 45.37253 | -122.95114 | 17637 ft | 389 kts | 187° |
| 2026-04-24 22:49 | 45.34547 | -122.95430 | 18266 ft | 393 kts | 187° |
| 2026-04-24 22:50 | 45.31849 | -122.95745 | 18897 ft | 396 kts | 187° |
| 2026-04-24 22:50 | 45.29091 | -122.96066 | 19528 ft | 399 kts | 186° |
| 2026-04-24 22:50 | 45.26312 | -122.96388 | 20138 ft | 402 kts | 186° |
| 2026-04-24 22:50 | 45.23538 | -122.96712 | 20765 ft | 405 kts | 187° |
| 2026-04-24 22:51 | 45.20740 | -122.97195 | 21380 ft | 406 kts | 191° |
| 2026-04-24 22:51 | 45.17949 | -122.97837 | 21993 ft | 408 kts | 192° |
| 2026-04-24 22:51 | 45.15128 | -122.98505 | 22583 ft | 411 kts | 192° |
| 2026-04-24 22:51 | 45.12300 | -122.99176 | 23135 ft | 414 kts | 192° |
| 2026-04-24 22:52 | 45.09447 | -122.99848 | 23701 ft | 417 kts | 192° |
| 2026-04-24 22:52 | 45.06607 | -123.00513 | 24243 ft | 420 kts | 192° |
| 2026-04-24 22:52 | 45.03669 | -123.01199 | 24756 ft | 423 kts | 192° |
| 2026-04-24 22:52 | 45.00770 | -123.01874 | 25257 ft | 426 kts | 192° |
| 2026-04-24 22:53 | 44.97841 | -123.02554 | 25751 ft | 429 kts | 192° |
| 2026-04-24 22:53 | 44.94852 | -123.03249 | 26222 ft | 431 kts | 192° |
| 2026-04-24 22:53 | 44.91893 | -123.03935 | 26656 ft | 435 kts | 192° |
| 2026-04-24 22:53 | 44.88885 | -123.04633 | 27089 ft | 438 kts | 192° |
| 2026-04-24 22:54 | 44.85878 | -123.05326 | 27488 ft | 441 kts | 192° |
| 2026-04-24 22:54 | 44.82810 | -123.06032 | 27898 ft | 443 kts | 192° |
| 2026-04-24 22:54 | 44.79765 | -123.06731 | 28300 ft | 446 kts | 192° |
| 2026-04-24 22:54 | 44.76727 | -123.07430 | 28672 ft | 448 kts | 192° |
| 2026-04-24 22:55 | 44.73641 | -123.08141 | 29049 ft | 451 kts | 192° |
| 2026-04-24 22:55 | 44.70502 | -123.08862 | 29424 ft | 453 kts | 192° |
| 2026-04-24 22:55 | 44.67399 | -123.09576 | 29780 ft | 456 kts | 192° |
| 2026-04-24 22:55 | 44.64257 | -123.10297 | 30133 ft | 458 kts | 192° |
| 2026-04-24 22:56 | 44.61123 | -123.11018 | 30459 ft | 460 kts | 192° |
| 2026-04-24 22:56 | 44.57936 | -123.11748 | 30803 ft | 462 kts | 192° |
| 2026-04-24 22:56 | 44.54761 | -123.12471 | 31153 ft | 464 kts | 192° |
| 2026-04-24 22:56 | 44.51591 | -123.13195 | 31594 ft | 463 kts | 192° |
| 2026-04-24 22:57 | 44.48451 | -123.13911 | 32066 ft | 460 kts | 192° |
| 2026-04-24 22:57 | 44.45315 | -123.14636 | 32515 ft | 458 kts | 192° |
| 2026-04-24 22:57 | 44.42166 | -123.15364 | 32951 ft | 457 kts | 193° |
| 2026-04-24 22:57 | 44.39053 | -123.16083 | 33349 ft | 456 kts | 192° |
| 2026-04-24 22:58 | 44.35895 | -123.16811 | 33745 ft | 455 kts | 192° |
| 2026-04-24 22:58 | 44.32793 | -123.17524 | 34118 ft | 454 kts | 192° |
| 2026-04-24 22:58 | 44.29705 | -123.18232 | 34466 ft | 453 kts | 192° |
| 2026-04-24 22:58 | 44.26586 | -123.18947 | 34829 ft | 452 kts | 192° |
| 2026-04-24 22:59 | 44.23501 | -123.19653 | 35122 ft | 451 kts | 192° |
| 2026-04-24 22:59 | 44.20447 | -123.20351 | 35391 ft | 450 kts | 192° |
| 2026-04-24 22:59 | 44.14203 | -123.21396 | 35850 ft | 453 kts | 186° |
| 2026-04-24 23:00 | 44.11047 | -123.21515 | 36057 ft | 454 kts | 182° |
| 2026-04-24 23:00 | 44.07900 | -123.21350 | 36257 ft | 456 kts | 178° |
| 2026-04-24 23:00 | 44.04747 | -123.20901 | 36471 ft | 457 kts | 174° |
| 2026-04-24 23:00 | 44.01613 | -123.20288 | 36668 ft | 457 kts | 174° |
| 2026-04-24 23:01 | 43.98452 | -123.19661 | 36867 ft | 458 kts | 174° |
| 2026-04-24 23:01 | 43.92168 | -123.18430 | 36945 ft | 459 kts | 174° |
| 2026-04-24 23:02 | 43.85856 | -123.17210 | 36942 ft | 458 kts | 174° |
| 2026-04-24 23:02 | 43.79549 | -123.15998 | 36936 ft | 458 kts | 174° |
| 2026-04-24 23:03 | 43.73217 | -123.14786 | 36933 ft | 457 kts | 174° |
| 2026-04-24 23:03 | 43.66945 | -123.13585 | 36933 ft | 457 kts | 174° |
| 2026-04-24 23:04 | 43.60679 | -123.12388 | 36931 ft | 456 kts | 174° |
| 2026-04-24 23:04 | 43.54416 | -123.11195 | 36926 ft | 456 kts | 174° |
| 2026-04-24 23:05 | 43.48143 | -123.10003 | 36921 ft | 456 kts | 174° |
| 2026-04-24 23:05 | 43.41872 | -123.08814 | 36922 ft | 455 kts | 174° |
| 2026-04-24 23:06 | 43.35578 | -123.07622 | 36925 ft | 455 kts | 174° |
| 2026-04-24 23:06 | 43.29334 | -123.06441 | 36921 ft | 454 kts | 174° |
| 2026-04-24 23:07 | 43.23056 | -123.05259 | 36926 ft | 454 kts | 174° |
| 2026-04-24 23:07 | 43.16850 | -123.04090 | 36926 ft | 454 kts | 174° |
| 2026-04-24 23:08 | 43.10604 | -123.02917 | 36923 ft | 453 kts | 174° |
| 2026-04-24 23:08 | 43.04381 | -123.01753 | 36928 ft | 452 kts | 174° |
| 2026-04-24 23:09 | 42.98136 | -123.00584 | 36929 ft | 453 kts | 174° |
| 2026-04-24 23:09 | 42.91921 | -122.99424 | 36925 ft | 452 kts | 174° |
| 2026-04-24 23:10 | 42.85667 | -122.98260 | 36919 ft | 452 kts | 174° |
| 2026-04-24 23:10 | 42.79456 | -122.97108 | 36933 ft | 452 kts | 174° |
| 2026-04-24 23:11 | 42.73279 | -122.95962 | 36928 ft | 451 kts | 174° |
| 2026-04-24 23:11 | 42.67072 | -122.94812 | 36924 ft | 450 kts | 174° |
| 2026-04-24 23:12 | 42.60848 | -122.93661 | 36915 ft | 449 kts | 174° |
| 2026-04-24 23:12 | 42.54661 | -122.92514 | 36912 ft | 450 kts | 175° |
| 2026-04-24 23:13 | 42.48497 | -122.91350 | 36898 ft | 450 kts | 173° |
| 2026-04-24 23:13 | 42.42341 | -122.89648 | 36895 ft | 450 kts | 170° |
| 2026-04-24 23:14 | 42.36230 | -122.87850 | 36889 ft | 450 kts | 170° |
| 2026-04-24 23:14 | 42.30149 | -122.86063 | 36899 ft | 450 kts | 170° |
| 2026-04-24 23:15 | 42.24029 | -122.84270 | 36902 ft | 449 kts | 170° |
| 2026-04-24 23:15 | 42.17942 | -122.82489 | 36907 ft | 449 kts | 170° |
| 2026-04-24 23:16 | 42.11857 | -122.80714 | 36923 ft | 449 kts | 170° |
| 2026-04-24 23:16 | 42.05758 | -122.78937 | 36932 ft | 448 kts | 170° |
| 2026-04-24 23:17 | 41.99670 | -122.77166 | 36934 ft | 448 kts | 170° |
| 2026-04-24 23:17 | 41.93568 | -122.75392 | 36945 ft | 448 kts | 170° |
| 2026-04-24 23:18 | 41.87484 | -122.73631 | 36945 ft | 447 kts | 170° |
| 2026-04-24 23:18 | 41.81424 | -122.71886 | 36935 ft | 447 kts | 170° |
| 2026-04-24 23:19 | 41.75367 | -122.70143 | 36926 ft | 447 kts | 170° |
| 2026-04-24 23:19 | 41.69295 | -122.68394 | 36933 ft | 446 kts | 170° |
| 2026-04-24 23:20 | 41.63233 | -122.66653 | 36935 ft | 447 kts | 170° |
| 2026-04-24 23:20 | 41.57189 | -122.64920 | 36928 ft | 447 kts | 170° |
| 2026-04-24 23:21 | 41.51115 | -122.63180 | 36929 ft | 446 kts | 170° |
| 2026-04-24 23:21 | 41.45029 | -122.61440 | 36941 ft | 445 kts | 171° |
| 2026-04-24 23:22 | 41.39007 | -122.59722 | 36948 ft | 445 kts | 171° |
| 2026-04-24 23:22 | 41.32944 | -122.57996 | 36948 ft | 444 kts | 171° |
| 2026-04-24 23:23 | 41.26891 | -122.56276 | 36941 ft | 444 kts | 170° |
| 2026-04-24 23:23 | 41.20869 | -122.54570 | 36941 ft | 444 kts | 171° |
| 2026-04-24 23:24 | 41.14840 | -122.52863 | 36942 ft | 444 kts | 171° |
| 2026-04-24 23:24 | 41.08825 | -122.51161 | 36945 ft | 444 kts | 171° |
| 2026-04-24 23:25 | 41.02799 | -122.49461 | 36934 ft | 444 kts | 171° |
| 2026-04-24 23:25 | 40.96726 | -122.47753 | 36916 ft | 443 kts | 171° |
| 2026-04-24 23:26 | 40.90723 | -122.46066 | 36908 ft | 443 kts | 171° |
| 2026-04-24 23:26 | 40.84714 | -122.44385 | 36909 ft | 443 kts | 171° |
| 2026-04-24 23:27 | 40.78675 | -122.42699 | 36902 ft | 443 kts | 171° |
| 2026-04-24 23:27 | 40.72633 | -122.41011 | 36904 ft | 443 kts | 171° |
| 2026-04-24 23:28 | 40.66650 | -122.39343 | 36890 ft | 443 kts | 171° |
| 2026-04-24 23:28 | 40.60607 | -122.37659 | 36878 ft | 442 kts | 171° |
| 2026-04-24 23:29 | 40.54592 | -122.35987 | 36866 ft | 442 kts | 171° |
| 2026-04-24 23:29 | 40.48589 | -122.34315 | 36865 ft | 442 kts | 171° |
| 2026-04-24 23:30 | 40.42563 | -122.32617 | 36865 ft | 442 kts | 172° |
| 2026-04-24 23:30 | 40.36590 | -122.30954 | 36864 ft | 442 kts | 172° |
| 2026-04-24 23:31 | 40.30563 | -122.29289 | 36860 ft | 442 kts | 172° |
| 2026-04-24 23:31 | 40.24530 | -122.27627 | 36867 ft | 443 kts | 172° |
| 2026-04-24 23:32 | 40.18542 | -122.25980 | 36869 ft | 442 kts | 172° |
| 2026-04-24 23:32 | 40.12513 | -122.24324 | 36870 ft | 442 kts | 171° |
| 2026-04-24 23:33 | 40.06543 | -122.22206 | 36864 ft | 445 kts | 166° |
| 2026-04-24 23:33 | 40.00679 | -122.19723 | 36863 ft | 445 kts | 166° |
| 2026-04-24 23:34 | 39.94817 | -122.17244 | 36866 ft | 445 kts | 166° |
| 2026-04-24 23:34 | 39.88934 | -122.14762 | 36864 ft | 445 kts | 166° |
| 2026-04-24 23:35 | 39.83022 | -122.12280 | 36861 ft | 445 kts | 166° |
| 2026-04-24 23:35 | 39.77126 | -122.09810 | 36855 ft | 446 kts | 166° |
| 2026-04-24 23:36 | 39.71260 | -122.07351 | 36852 ft | 445 kts | 166° |
| 2026-04-24 23:36 | 39.65367 | -122.04885 | 36856 ft | 445 kts | 166° |
| 2026-04-24 23:37 | 39.59459 | -122.02416 | 36851 ft | 446 kts | 166° |
| 2026-04-24 23:37 | 39.50605 | -121.98723 | 36853 ft | 447 kts | 166° |
| 2026-04-24 23:38 | 39.44703 | -121.96266 | 36854 ft | 447 kts | 166° |
| 2026-04-24 23:38 | 39.38765 | -121.93800 | 36849 ft | 447 kts | 166° |
| 2026-04-24 23:39 | 39.32876 | -121.91358 | 36847 ft | 447 kts | 166° |
| 2026-04-24 23:39 | 39.26960 | -121.88908 | 36847 ft | 447 kts | 166° |
| 2026-04-24 23:40 | 39.21011 | -121.86450 | 36842 ft | 448 kts | 166° |
| 2026-04-24 23:40 | 39.15091 | -121.84009 | 36844 ft | 448 kts | 166° |
| 2026-04-24 23:41 | 39.09170 | -121.81572 | 36853 ft | 449 kts | 166° |
| 2026-04-24 23:41 | 39.03252 | -121.79138 | 36851 ft | 448 kts | 166° |
| 2026-04-24 23:42 | 38.97293 | -121.76694 | 36862 ft | 449 kts | 166° |
| 2026-04-24 23:42 | 38.91343 | -121.74256 | 36869 ft | 448 kts | 166° |
| 2026-04-24 23:43 | 38.85406 | -121.71834 | 36867 ft | 448 kts | 166° |
| 2026-04-24 23:43 | 38.79437 | -121.69403 | 36871 ft | 448 kts | 166° |
| 2026-04-24 23:44 | 38.73506 | -121.66988 | 36878 ft | 448 kts | 166° |
| 2026-04-24 23:44 | 38.67585 | -121.64579 | 36886 ft | 448 kts | 166° |
| 2026-04-24 23:45 | 38.61624 | -121.62156 | 36880 ft | 449 kts | 166° |
| 2026-04-24 23:45 | 38.55682 | -121.59743 | 36881 ft | 449 kts | 166° |
| 2026-04-24 23:46 | 38.49761 | -121.57341 | 36880 ft | 449 kts | 167° |
| 2026-04-24 23:46 | 38.43819 | -121.54830 | 36885 ft | 451 kts | 163° |
| 2026-04-24 23:47 | 38.38025 | -121.51774 | 36891 ft | 452 kts | 161° |
| 2026-04-24 23:47 | 38.32247 | -121.48656 | 36878 ft | 452 kts | 161° |
| 2026-04-24 23:48 | 38.26429 | -121.45519 | 36874 ft | 453 kts | 161° |
| 2026-04-24 23:48 | 38.20641 | -121.42406 | 36877 ft | 453 kts | 161° |
| 2026-04-24 23:49 | 38.14835 | -121.39291 | 36879 ft | 454 kts | 161° |
| 2026-04-24 23:49 | 38.09040 | -121.36185 | 36882 ft | 454 kts | 161° |
| 2026-04-24 23:50 | 38.03243 | -121.33070 | 36888 ft | 453 kts | 162° |
| 2026-04-24 23:50 | 37.97419 | -121.29931 | 36877 ft | 453 kts | 162° |
| 2026-04-24 23:51 | 37.91627 | -121.26831 | 36887 ft | 453 kts | 162° |
| 2026-04-24 23:51 | 37.85828 | -121.23748 | 36888 ft | 454 kts | 162° |
| 2026-04-24 23:52 | 37.80009 | -121.20666 | 36884 ft | 454 kts | 162° |
| 2026-04-24 23:52 | 37.74211 | -121.17594 | 36880 ft | 453 kts | 163° |
| 2026-04-24 23:53 | 37.68415 | -121.14526 | 36886 ft | 453 kts | 163° |
| 2026-04-24 23:53 | 37.62607 | -121.11459 | 36887 ft | 453 kts | 163° |
| 2026-04-24 23:54 | 37.56770 | -121.08379 | 36887 ft | 454 kts | 163° |
| 2026-04-24 23:54 | 37.50971 | -121.05325 | 36882 ft | 454 kts | 163° |
| 2026-04-24 23:55 | 37.45143 | -121.02260 | 36883 ft | 454 kts | 163° |
| 2026-04-24 23:55 | 37.39293 | -120.99189 | 36876 ft | 455 kts | 163° |
| 2026-04-24 23:56 | 37.33498 | -120.96152 | 36875 ft | 455 kts | 163° |
| 2026-04-24 23:56 | 37.27661 | -120.93097 | 36876 ft | 454 kts | 163° |
| 2026-04-24 23:57 | 37.21823 | -120.90046 | 36870 ft | 454 kts | 163° |
| 2026-04-24 23:57 | 37.16010 | -120.87014 | 36863 ft | 454 kts | 163° |
| 2026-04-24 23:58 | 37.10151 | -120.83966 | 36869 ft | 455 kts | 164° |
| 2026-04-24 23:58 | 37.04314 | -120.80933 | 36860 ft | 455 kts | 164° |
| 2026-04-24 23:59 | 36.98473 | -120.77904 | 36856 ft | 455 kts | 163° |
| 2026-04-24 23:59 | 36.92669 | -120.74897 | 36849 ft | 454 kts | 164° |
| 2026-04-25 00:00 | 36.86844 | -120.71885 | 36852 ft | 453 kts | 164° |
| 2026-04-25 00:00 | 36.81009 | -120.68884 | 36851 ft | 453 kts | 164° |
| 2026-04-25 00:01 | 36.75187 | -120.65888 | 36855 ft | 453 kts | 164° |
| 2026-04-25 00:01 | 36.69338 | -120.62882 | 36859 ft | 454 kts | 165° |
| 2026-04-25 00:02 | 36.63497 | -120.59880 | 36862 ft | 455 kts | 165° |
| 2026-04-25 00:02 | 36.57635 | -120.56873 | 36865 ft | 455 kts | 165° |
| 2026-04-25 00:03 | 36.51812 | -120.53889 | 36584 ft | 453 kts | 165° |
| 2026-04-25 00:03 | 36.48908 | -120.52403 | 36304 ft | 450 kts | 165° |
| 2026-04-25 00:03 | 36.46029 | -120.50930 | 36033 ft | 448 kts | 165° |
| 2026-04-25 00:04 | 36.43142 | -120.49453 | 35784 ft | 445 kts | 166° |
| 2026-04-25 00:04 | 36.40287 | -120.47995 | 35565 ft | 443 kts | 166° |
| 2026-04-25 00:04 | 36.37441 | -120.46546 | 35344 ft | 442 kts | 166° |
| 2026-04-25 00:04 | 36.34587 | -120.45093 | 35123 ft | 442 kts | 166° |
| 2026-04-25 00:05 | 36.31776 | -120.43666 | 34906 ft | 442 kts | 166° |
| 2026-04-25 00:05 | 36.28898 | -120.42205 | 34684 ft | 443 kts | 166° |
| 2026-04-25 00:05 | 36.26061 | -120.40765 | 34465 ft | 445 kts | 166° |
| 2026-04-25 00:05 | 36.23185 | -120.39301 | 34242 ft | 444 kts | 167° |
| 2026-04-25 00:06 | 36.20337 | -120.37855 | 34028 ft | 443 kts | 167° |
| 2026-04-25 00:06 | 36.17510 | -120.36423 | 33772 ft | 444 kts | 167° |
| 2026-04-25 00:06 | 36.14657 | -120.34978 | 33513 ft | 445 kts | 167° |
| 2026-04-25 00:06 | 36.11783 | -120.33514 | 33249 ft | 444 kts | 167° |
| 2026-04-25 00:07 | 36.08905 | -120.32045 | 32989 ft | 447 kts | 167° |
| 2026-04-25 00:07 | 36.06039 | -120.30587 | 32731 ft | 448 kts | 167° |
| 2026-04-25 00:07 | 36.03151 | -120.29121 | 32472 ft | 450 kts | 167° |
| 2026-04-25 00:07 | 36.00233 | -120.27646 | 32213 ft | 452 kts | 167° |
| 2026-04-25 00:08 | 35.97321 | -120.26174 | 31954 ft | 451 kts | 167° |
| 2026-04-25 00:08 | 35.94425 | -120.24715 | 31698 ft | 453 kts | 167° |
| 2026-04-25 00:08 | 35.91506 | -120.23243 | 31439 ft | 453 kts | 167° |
| 2026-04-25 00:08 | 35.88574 | -120.21773 | 31183 ft | 455 kts | 167° |
| 2026-04-25 00:09 | 35.85675 | -120.20319 | 30930 ft | 455 kts | 167° |
| 2026-04-25 00:09 | 35.82716 | -120.18835 | 30670 ft | 455 kts | 167° |
| 2026-04-25 00:09 | 35.79805 | -120.17374 | 30414 ft | 453 kts | 167° |
| 2026-04-25 00:09 | 35.76879 | -120.15906 | 30158 ft | 453 kts | 167° |
| 2026-04-25 00:10 | 35.73998 | -120.14462 | 29904 ft | 450 kts | 167° |
| 2026-04-25 00:10 | 35.71072 | -120.12995 | 29641 ft | 450 kts | 167° |
| 2026-04-25 00:10 | 35.68219 | -120.11497 | 29383 ft | 451 kts | 164° |
| 2026-04-25 00:10 | 35.65378 | -120.09766 | 29123 ft | 453 kts | 160° |
| 2026-04-25 00:11 | 35.62662 | -120.07848 | 28864 ft | 455 kts | 157° |
| 2026-04-25 00:11 | 35.59983 | -120.05828 | 28604 ft | 453 kts | 156° |
| 2026-04-25 00:11 | 35.57295 | -120.03788 | 28338 ft | 450 kts | 156° |
| 2026-04-25 00:11 | 35.54637 | -120.01774 | 28080 ft | 450 kts | 156° |
| 2026-04-25 00:12 | 35.51976 | -119.99759 | 27815 ft | 447 kts | 156° |
| 2026-04-25 00:12 | 35.49358 | -119.97783 | 27558 ft | 445 kts | 156° |
| 2026-04-25 00:12 | 35.46722 | -119.95801 | 27294 ft | 444 kts | 156° |
| 2026-04-25 00:12 | 35.44105 | -119.93835 | 27031 ft | 442 kts | 156° |
| 2026-04-25 00:13 | 35.41471 | -119.91856 | 26762 ft | 440 kts | 156° |
| 2026-04-25 00:13 | 35.38882 | -119.89913 | 26505 ft | 439 kts | 156° |
| 2026-04-25 00:13 | 35.36269 | -119.87951 | 26238 ft | 437 kts | 156° |
| 2026-04-25 00:13 | 35.33711 | -119.86033 | 25990 ft | 435 kts | 156° |
| 2026-04-25 00:14 | 35.31129 | -119.84103 | 25921 ft | 435 kts | 155° |
| 2026-04-25 00:14 | 35.28582 | -119.82083 | 25910 ft | 438 kts | 153° |
| 2026-04-25 00:14 | 35.26120 | -119.79887 | 25910 ft | 442 kts | 150° |
| 2026-04-25 00:14 | 35.23672 | -119.77601 | 25914 ft | 443 kts | 149° |
| 2026-04-25 00:15 | 35.21205 | -119.75288 | 25915 ft | 443 kts | 149° |
| 2026-04-25 00:15 | 35.18780 | -119.73010 | 25916 ft | 442 kts | 149° |
| 2026-04-25 00:15 | 35.16326 | -119.70712 | 25907 ft | 443 kts | 149° |
| 2026-04-25 00:15 | 35.13897 | -119.68440 | 25908 ft | 443 kts | 149° |
| 2026-04-25 00:16 | 35.11447 | -119.66155 | 25913 ft | 444 kts | 150° |
| 2026-04-25 00:16 | 35.08979 | -119.63856 | 25911 ft | 442 kts | 149° |
| 2026-04-25 00:16 | 35.06533 | -119.61579 | 25907 ft | 443 kts | 150° |
| 2026-04-25 00:16 | 35.04113 | -119.59328 | 25909 ft | 442 kts | 150° |
| 2026-04-25 00:17 | 35.01654 | -119.57040 | 25918 ft | 442 kts | 150° |
| 2026-04-25 00:17 | 34.99211 | -119.54772 | 25918 ft | 442 kts | 150° |
| 2026-04-25 00:17 | 34.96747 | -119.52485 | 25917 ft | 443 kts | 150° |
| 2026-04-25 00:17 | 34.94308 | -119.50225 | 25923 ft | 444 kts | 150° |
| 2026-04-25 00:18 | 34.91836 | -119.47933 | 25918 ft | 445 kts | 150° |
| 2026-04-25 00:18 | 34.89361 | -119.45680 | 25543 ft | 445 kts | 151° |
| 2026-04-25 00:18 | 34.86889 | -119.43477 | 25030 ft | 442 kts | 151° |
| 2026-04-25 00:18 | 34.84416 | -119.41283 | 24540 ft | 438 kts | 151° |
| 2026-04-25 00:19 | 34.81965 | -119.39100 | 24094 ft | 433 kts | 151° |
| 2026-04-25 00:19 | 34.79535 | -119.36929 | 23661 ft | 429 kts | 151° |
| 2026-04-25 00:19 | 34.77161 | -119.34811 | 23226 ft | 425 kts | 151° |
| 2026-04-25 00:19 | 34.74780 | -119.32670 | 22844 ft | 420 kts | 151° |
| 2026-04-25 00:20 | 34.72436 | -119.30594 | 22316 ft | 418 kts | 152° |
| 2026-04-25 00:20 | 34.70065 | -119.28527 | 21750 ft | 418 kts | 152° |
| 2026-04-25 00:20 | 34.67701 | -119.26470 | 21201 ft | 417 kts | 151° |
| 2026-04-25 00:20 | 34.65360 | -119.24429 | 20653 ft | 416 kts | 151° |
| 2026-04-25 00:21 | 34.63036 | -119.22413 | 20242 ft | 411 kts | 151° |
| 2026-04-25 00:21 | 34.60719 | -119.20412 | 19849 ft | 406 kts | 150° |
| 2026-04-25 00:21 | 34.58431 | -119.18439 | 19441 ft | 401 kts | 150° |
| 2026-04-25 00:21 | 34.56168 | -119.16489 | 19040 ft | 397 kts | 150° |
| 2026-04-25 00:22 | 34.53957 | -119.14550 | 18638 ft | 394 kts | 149° |
| 2026-04-25 00:22 | 34.51750 | -119.12591 | 18222 ft | 390 kts | 149° |
| 2026-04-25 00:22 | 34.49578 | -119.10661 | 17826 ft | 387 kts | 149° |
| 2026-04-25 00:22 | 34.47397 | -119.08725 | 17409 ft | 384 kts | 149° |
| 2026-04-25 00:23 | 34.45253 | -119.06829 | 16991 ft | 381 kts | 149° |
| 2026-04-25 00:23 | 34.43110 | -119.04945 | 16571 ft | 379 kts | 149° |
| 2026-04-25 00:23 | 34.41000 | -119.03117 | 16164 ft | 375 kts | 149° |
| 2026-04-25 00:23 | 34.38871 | -119.01276 | 15751 ft | 373 kts | 149° |
| 2026-04-25 00:24 | 34.36762 | -118.99455 | 15334 ft | 370 kts | 149° |
| 2026-04-25 00:24 | 34.34678 | -118.97652 | 14930 ft | 368 kts | 149° |
| 2026-04-25 00:24 | 34.32610 | -118.95824 | 14522 ft | 366 kts | 147° |
| 2026-04-25 00:24 | 34.30572 | -118.93967 | 14112 ft | 363 kts | 147° |
| 2026-04-25 00:25 | 34.28558 | -118.92128 | 13711 ft | 360 kts | 147° |
| 2026-04-25 00:25 | 34.26556 | -118.90305 | 13313 ft | 356 kts | 147° |
| 2026-04-25 00:25 | 34.24601 | -118.88526 | 12916 ft | 354 kts | 146° |
| 2026-04-25 00:25 | 34.22638 | -118.86722 | 12466 ft | 352 kts | 146° |
| 2026-04-25 00:26 | 34.20717 | -118.84954 | 12085 ft | 347 kts | 146° |
| 2026-04-25 00:26 | 34.18826 | -118.83212 | 11958 ft | 333 kts | 146° |
| 2026-04-25 00:26 | 34.17016 | -118.81538 | 11933 ft | 317 kts | 145° |
| 2026-04-25 00:26 | 34.15347 | -118.79841 | 11569 ft | 316 kts | 141° |
| 2026-04-25 00:27 | 34.13710 | -118.78068 | 11224 ft | 312 kts | 140° |
| 2026-04-25 00:27 | 34.12122 | -118.76333 | 10965 ft | 309 kts | 140° |
| 2026-04-25 00:27 | 34.10524 | -118.74589 | 10570 ft | 306 kts | 140° |
| 2026-04-25 00:27 | 34.08955 | -118.72877 | 10252 ft | 302 kts | 140° |
| 2026-04-25 00:28 | 34.07389 | -118.71175 | 9942 ft | 298 kts | 139° |
| 2026-04-25 00:28 | 34.05872 | -118.69528 | 9654 ft | 294 kts | 139° |
| 2026-04-25 00:28 | 34.04358 | -118.67880 | 9446 ft | 286 kts | 139° |
| 2026-04-25 00:28 | 34.03121 | -118.66061 | 9177 ft | 285 kts | 116° |
| 2026-04-25 00:29 | 34.02587 | -118.63773 | 8900 ft | 282 kts | 97° |
| 2026-04-25 00:29 | 34.02387 | -118.61449 | 8611 ft | 279 kts | 95° |
| 2026-04-25 00:29 | 34.02217 | -118.59137 | 8331 ft | 277 kts | 95° |
| 2026-04-25 00:29 | 34.02030 | -118.56823 | 8047 ft | 274 kts | 96° |
| 2026-04-25 00:30 | 34.01829 | -118.54550 | 7833 ft | 269 kts | 96° |
| 2026-04-25 00:30 | 34.01628 | -118.52365 | 7663 ft | 261 kts | 96° |
| 2026-04-25 00:30 | 34.01430 | -118.50239 | 7540 ft | 250 kts | 96° |
| 2026-04-25 00:30 | 34.01237 | -118.48186 | 7412 ft | 241 kts | 96° |
| 2026-04-25 00:31 | 34.01086 | -118.46204 | 7231 ft | 239 kts | 90° |
| 2026-04-25 00:31 | 34.01226 | -118.44193 | 6992 ft | 237 kts | 79° |
| 2026-04-25 00:31 | 34.01546 | -118.42265 | 6755 ft | 236 kts | 77° |
| 2026-04-25 00:31 | 34.01897 | -118.40339 | 6520 ft | 234 kts | 76° |
| 2026-04-25 00:32 | 34.02243 | -118.38418 | 6282 ft | 233 kts | 76° |
| 2026-04-25 00:32 | 34.02577 | -118.36526 | 6055 ft | 233 kts | 77° |
| 2026-04-25 00:32 | 34.02844 | -118.34559 | 5841 ft | 237 kts | 82° |
| 2026-04-25 00:32 | 34.03048 | -118.32592 | 5565 ft | 237 kts | 83° |
| 2026-04-25 00:33 | 34.03240 | -118.30642 | 5360 ft | 233 kts | 83° |
| 2026-04-25 00:33 | 34.03432 | -118.28728 | 5068 ft | 230 kts | 83° |
| 2026-04-25 00:33 | 34.03629 | -118.26818 | 4767 ft | 226 kts | 83° |
| 2026-04-25 00:33 | 34.03822 | -118.24966 | 4470 ft | 222 kts | 83° |
| 2026-04-25 00:34 | 34.04012 | -118.23132 | 4173 ft | 217 kts | 84° |
| 2026-04-25 00:34 | 34.04195 | -118.21356 | 3881 ft | 213 kts | 84° |
| 2026-04-25 00:34 | 34.04378 | -118.19590 | 3585 ft | 210 kts | 84° |
| 2026-04-25 00:34 | 34.04555 | -118.17871 | 3290 ft | 206 kts | 84° |
| 2026-04-25 00:35 | 34.04734 | -118.16139 | 2925 ft | 207 kts | 84° |
| 2026-04-25 00:35 | 34.04908 | -118.14440 | 2635 ft | 204 kts | 84° |
| 2026-04-25 00:35 | 34.05079 | -118.12780 | 2578 ft | 193 kts | 85° |
| 2026-04-25 00:35 | 34.05245 | -118.11189 | 2569 ft | 192 kts | 86° |
| 2026-04-25 00:36 | 34.05119 | -118.09622 | 2551 ft | 186 kts | 118° |
| 2026-04-25 00:36 | 34.04261 | -118.08518 | 2563 ft | 182 kts | 157° |
| 2026-04-25 00:36 | 34.03022 | -118.08342 | 2562 ft | 181 kts | 196° |
| 2026-04-25 00:36 | 34.01871 | -118.08942 | 2578 ft | 184 kts | 208° |
| 2026-04-25 00:37 | 34.00761 | -118.09733 | 2566 ft | 185 kts | 211° |
| 2026-04-25 00:37 | 33.99661 | -118.10552 | 2562 ft | 185 kts | 211° |
| 2026-04-25 00:37 | 33.98579 | -118.11364 | 2557 ft | 184 kts | 213° |
| 2026-04-25 00:37 | 33.97757 | -118.12531 | 2528 ft | 185 kts | 252° |
| 2026-04-25 00:38 | 33.97591 | -118.14072 | 2562 ft | 189 kts | 268° |
| 2026-04-25 00:38 | 33.97574 | -118.15660 | 2562 ft | 190 kts | 266° |
| 2026-04-25 00:38 | 33.97519 | -118.17250 | 2563 ft | 190 kts | 265° |
| 2026-04-25 00:38 | 33.97419 | -118.18847 | 2562 ft | 191 kts | 263° |
| 2026-04-25 00:39 | 33.97284 | -118.20425 | 2559 ft | 192 kts | 261° |
| 2026-04-25 00:39 | 33.97124 | -118.22013 | 2587 ft | 188 kts | 261° |
| 2026-04-25 00:39 | 33.96967 | -118.23502 | 2664 ft | 170 kts | 261° |
| 2026-04-25 00:39 | 33.96822 | -118.24857 | 2557 ft | 159 kts | 261° |
| 2026-04-25 00:40 | 33.96680 | -118.26172 | 2342 ft | 154 kts | 260° |
| 2026-04-25 00:40 | 33.96548 | -118.27409 | 2165 ft | 149 kts | 261° |
| 2026-04-25 00:40 | 33.96416 | -118.28649 | 1981 ft | 146 kts | 259° |
| 2026-04-25 00:40 | 33.96295 | -118.29804 | 1784 ft | 137 kts | 259° |
| 2026-04-25 00:41 | 33.96175 | -118.30934 | 1604 ft | 137 kts | 260° |
| 2026-04-25 00:41 | 33.96056 | -118.32062 | 1431 ft | 136 kts | 260° |
| 2026-04-25 00:41 | 33.95937 | -118.33199 | 1254 ft | 136 kts | 260° |
| 2026-04-25 00:41 | 33.95821 | -118.34318 | 1080 ft | 135 kts | 260° |
| 2026-04-25 00:42 | 33.95713 | -118.35453 | 894 ft | 135 kts | 261° |
| 2026-04-25 00:42 | 33.95610 | -118.36563 | 715 ft | 133 kts | 258° |
| 2026-04-25 00:42 | 33.95484 | -118.37652 | 549 ft | 132 kts | 260° |
| 2026-04-25 00:42 | 33.95364 | -118.38750 | 405 ft | 131 kts | 261° |
| 2026-04-25 00:43 | 33.95247 | -118.39835 | 239 ft | 131 kts | 261° |
| 2026-04-25 00:43 | 33.95138 | -118.40915 | 131 ft | 123 kts | 261° |
| 2026-04-25 00:43 | 33.95050 | -118.41762 | 127 ft | 77 kts | 264° |
| 2026-04-25 00:43 | 33.94950 | -118.42184 | 125 ft | 27 kts | 231° |
| 2026-04-25 00:44 | 33.94902 | -118.42246 | 124 ft | 6 kts | 225° |
| 2026-04-25 00:44 | 33.94840 | -118.42284 | 123 ft | 13 kts | 184° |
| 2026-04-25 00:44 | 33.94734 | -118.42276 | 122 ft | 16 kts | 174° |
| 2026-04-25 00:44 | 33.94627 | -118.42255 | 120 ft | 14 kts | 138° |
| 2026-04-25 00:45 | 33.94611 | -118.42133 | 121 ft | 16 kts | 82° |
| 2026-04-25 00:45 | 33.94626 | -118.41994 | 123 ft | 17 kts | 84° |
| 2026-04-25 00:45 | 33.94635 | -118.41856 | 124 ft | 16 kts | 82° |
| 2026-04-25 00:45 | 33.94649 | -118.41717 | 126 ft | 17 kts | 83° |
| 2026-04-25 00:46 | 33.94664 | -118.41566 | 127 ft | 18 kts | 82° |
| 2026-04-25 00:46 | 33.94680 | -118.41413 | 128 ft | 19 kts | 84° |
| 2026-04-25 00:46 | 33.94732 | -118.41104 | 131 ft | 18 kts | 83° |
| 2026-04-25 00:47 | 33.94746 | -118.40958 | 131 ft | 17 kts | 84° |
| 2026-04-25 00:47 | 33.94762 | -118.40820 | 129 ft | 15 kts | 82° |
| 2026-04-25 00:47 | 33.94775 | -118.40689 | 129 ft | 15 kts | 84° |
| 2026-04-25 00:47 | 33.94763 | -118.40610 | 128 ft | 8 kts | 152° |
| 2026-04-25 00:48 | 33.94701 | -118.40597 | 129 ft | 7 kts | 174° |
| 2026-04-25 00:48 | 33.94663 | -118.40591 | 129 ft | 5 kts | 174° |
| 2026-04-25 00:48 | 33.94621 | -118.40585 | 129 ft | 6 kts | 165° |
| 2026-04-25 00:48 | 33.94579 | -118.40563 | 129 ft | 6 kts | 205° |
| 2026-04-25 00:49 | 33.94567 | -118.40588 | 129 ft | 2 kts | 267° |
| 2026-04-25 00:49 | 33.94567 | -118.40616 | 129 ft | 3 kts | 265° |
| 2026-04-25 00:49 | 33.94566 | -118.40630 | 129 ft | 0 kts | 263° |
| 2026-04-25 00:49 | 33.94565 | -118.40634 | 129 ft | 0 kts | 263° |